Lakewood, CO

2:42 PM MDT on May 04, 2015 (GMT -0600)
Jeffco | | Change Station
CLOSE
Current Station
Airport
Location: Broomfield,
Elevation: 5656 ft
Nearby Weather Stations

Elev 5656 ft 39.90 °N, 105.10 °W | Updated 1 hour ago

Mostly Cloudy
Mostly Cloudy
55 °F
Feels Like 55 °F
N
0
Wind Variable Wind from North

Today
High -- | Low -- °F
--% Chance of Precip.
Yesterday
High -- | Low -- °F
Precip. -- in
5:57 AM 7:57 PM
Waxing Gibbous, 99% visible
Pressure 30.13 in
Visibility -9999.0 miles
Clouds Scattered Clouds 600 ft
Mostly Cloudy 1300 ft
Overcast 2000 ft
Dew Point 48 °F
Humidity 77%
Rainfall 0.00 in
Snow Depth Not available.
UV 4 out of 12
Pollen 5.40 out of 12
Air Quality Not available.
Flu Activity Sporadic
METAR KBJC 041852Z COR 00000KT 8 SCT006 BKN013 OVC020 13/09 A3013 RMK CIG LWR W

More Conditions Fewer Conditions

Pressure 30.13 in
Visibility -9999.0 miles
Clouds Scattered Clouds 600 ft
Mostly Cloudy 1300 ft
Overcast 2000 ft
Dew Point 48 °F
Humidity 77%
Rainfall 0.00 in
Snow Depth Not available.
UV 4 out of 12
Pollen 5.40 out of 12
Air Quality Not available.
Flu Activity Sporadic
METAR KBJC 041852Z COR 00000KT 8 SCT006 BKN013 OVC020 13/09 A3013 RMK CIG LWR W

More Conditions Fewer Conditions

Nepal has a long way to go to dig out and rebuild from a devastating earthquake. We have teamed up with several charities and organizations to make contributing to the relief effort as easy as possible.
How you can help: Portlight Strategies | Red Cross

10-Day Weather Forecast

Almanac

Astronomy

May. 04, 2015 Rise Set
Actual Time
Civil Twilight
Nautical Twilight
Astronomical Twilight
Moon
Length of Visible Light
Length of Day
Tomorrow will be .
, % of the Moon is Illuminated

Today's Extremes

State Highs State Lows

Community

WunderPhotos

Upload Photos

1,818,696 photos uploaded!

WunderBlogs® & News

Nearby

Air Quality

  Air Quality AQ Index Pollutant
Not available.

Snow Depth

Station Depth Elevation

Earthquake Activity

City Distance Mag. Time & Date
Minimum magnitude displayed is 2.5.

Coastal Water Temperatures

Place Temperature

Stations

Nearby Weather Stations

Station Location Temp. Windchill Dew Point Humidity Wind Precip. Elev Updated Type